Time;durP1;ratioP1;P1;durP2;ratioP2;P2;SDS_P1;SDS_P2;PMS_P1;PMS_P2;Temp;Humidity;BMP_temperature;BMP_pressure;BME280_temperature;BME280_humidity;BME280_pressure;Samples;Min_cycle;Max_cycle;Signal;HPM_P1;HPM_P2
2023/06/04 00:00:44;;;;;;;10.32;3.58;;;11.70;99.90;;;;;;4999597;28;20044;-71
2023/06/04 00:03:10;;;;;;;8.82;3.45;;;11.70;99.90;;;;;;5008378;28;20053;-70
2023/06/04 00:05:35;;;;;;;8.70;3.40;;;11.70;99.90;;;;;;5014468;28;20042;-70
2023/06/04 00:08:01;;;;;;;10.80;3.22;;;11.70;99.90;;;;;;5018649;28;20084;-70
2023/06/04 00:10:27;;;;;;;10.98;3.58;;;11.60;99.90;;;;;;5019395;28;20096;-70
2023/06/04 00:12:53;;;;;;;7.40;3.33;;;11.60;99.90;;;;;;5011599;28;20050;-70
2023/06/04 00:15:18;;;;;;;8.95;3.55;;;11.60;99.90;;;;;;5009052;28;20045;-70
2023/06/04 00:17:44;;;;;;;8.55;3.13;;;11.50;99.90;;;;;;5011951;28;20042;-70
2023/06/04 00:20:10;;;;;;;9.50;3.20;;;11.50;99.90;;;;;;5008102;28;20175;-71
2023/06/04 00:22:36;;;;;;;8.20;3.13;;;11.40;99.90;;;;;;5008437;28;20050;-70
2023/06/04 00:25:03;;;;;;;9.75;2.97;;;11.40;99.90;;;;;;5026332;28;20517;-71
2023/06/04 00:27:29;;;;;;;9.85;3.42;;;11.40;99.90;;;;;;5024349;28;20080;-70
2023/06/04 00:29:54;;;;;;;10.80;3.30;;;11.40;99.90;;;;;;5024391;28;20053;-70
2023/06/04 00:32:21;;;;;;;7.65;3.28;;;11.40;99.90;;;;;;5012304;28;20046;-70
2023/06/04 00:34:51;;;;;;;9.52;2.97;;;11.30;99.90;;;;;;5013117;28;20049;-70
2023/06/04 00:37:17;;;;;;;10.82;3.40;;;11.30;99.90;;;;;;5008404;28;20506;-70
2023/06/04 00:39:42;;;;;;;9.18;3.05;;;11.20;99.90;;;;;;5023985;28;20048;-70
2023/06/04 00:42:08;;;;;;;8.45;3.17;;;11.20;99.90;;;;;;5014893;28;20481;-70
2023/06/04 00:44:34;;;;;;;10.82;3.10;;;11.20;99.90;;;;;;5008410;28;20053;-70
2023/06/04 00:47:00;;;;;;;8.18;3.13;;;11.20;99.90;;;;;;5008319;28;20073;-70
2023/06/04 00:49:26;;;;;;;8.98;3.15;;;11.20;99.90;;;;;;5020373;28;20124;-70
2023/06/04 00:51:52;;;;;;;10.90;2.78;;;11.10;99.90;;;;;;5014961;28;20056;-70
2023/06/04 00:54:20;;;;;;;9.82;2.90;;;11.10;99.90;;;;;;5025705;28;20045;-70
2023/06/04 00:56:47;;;;;;;8.82;3.13;;;11.10;99.90;;;;;;4992704;28;20478;-70
2023/06/04 00:59:13;;;;;;;8.85;3.05;;;11.10;99.90;;;;;;5005993;28;20142;-70
2023/06/04 01:02:22;;;;;;;9.50;3.13;;;11.10;99.90;;;;;;5006626;28;20125;-70
2023/06/04 01:05:04;;;;;;;10.32;3.05;;;11.10;99.90;;;;;;4989815;28;20045;-69
2023/06/04 01:07:30;;;;;;;10.55;3.50;;;11.00;99.90;;;;;;5019592;28;20430;-70
2023/06/04 01:09:56;;;;;;;8.25;3.38;;;11.00;99.90;;;;;;5009310;28;20050;-70
2023/06/04 01:12:22;;;;;;;13.55;3.60;;;11.00;99.90;;;;;;5019215;28;20044;-69
2023/06/04 01:14:47;;;;;;;9.85;2.97;;;11.00;99.90;;;;;;5025859;28;20041;-69
2023/06/04 01:17:17;;;;;;;8.10;3.00;;;11.30;99.90;;;;;;5020859;28;20084;-70
2023/06/04 01:20:12;;;;;;;8.73;2.92;;;10.90;99.90;;;;;;5011699;28;20414;-70
2023/06/04 01:22:41;;;;;;;6.63;2.78;;;10.90;99.90;;;;;;4996457;28;20092;-69
2023/06/04 01:25:23;;;;;;;8.88;2.90;;;10.90;99.90;;;;;;5012852;28;20045;-69
2023/06/04 01:27:52;;;;;;;7.78;3.05;;;10.80;99.90;;;;;;5030344;28;20042;-70
2023/06/04 01:30:26;;;;;;;7.65;2.65;;;10.90;99.90;;;;;;5030635;28;20502;-70
2023/06/04 01:32:56;;;;;;;8.85;3.42;;;10.80;99.90;;;;;;5026942;28;20079;-70
2023/06/04 01:35:22;;;;;;;10.85;3.20;;;10.70;99.90;;;;;;5028628;28;20052;-69
2023/06/04 01:37:49;;;;;;;7.28;2.83;;;10.70;99.90;;;;;;5013386;28;20085;-70
2023/06/04 01:40:15;;;;;;;6.72;3.28;;;10.70;99.90;;;;;;5027372;28;20068;-70
2023/06/04 01:42:44;;;;;;;7.35;2.78;;;10.70;99.90;;;;;;5009006;28;20494;-70
2023/06/04 01:45:10;;;;;;;8.90;3.03;;;10.60;99.90;;;;;;5015880;28;20050;-70
2023/06/04 01:47:36;;;;;;;6.05;2.70;;;10.60;99.90;;;;;;5019944;28;20041;-70
2023/06/04 01:50:09;;;;;;;9.15;2.90;;;10.50;99.90;;;;;;5016976;28;20041;-70
2023/06/04 01:52:38;;;;;;;8.43;3.05;;;10.50;99.90;;;;;;5009562;28;20037;-70
2023/06/04 01:55:08;;;;;;;7.75;3.00;;;10.50;99.90;;;;;;5009976;28;20510;-70
2023/06/04 01:57:35;;;;;;;6.50;2.78;;;10.40;99.90;;;;;;5020830;28;20116;-70
2023/06/04 02:00:04;;;;;;;9.70;3.33;;;10.40;99.90;;;;;;5023385;28;20103;-69
2023/06/04 02:02:30;;;;;;;8.05;2.85;;;10.40;99.90;;;;;;5015259;28;20044;-69
2023/06/04 02:04:56;;;;;;;10.77;3.00;;;10.30;99.90;;;;;;5008614;28;20042;-69
2023/06/04 02:07:22;;;;;;;8.65;3.03;;;10.30;99.90;;;;;;5010308;28;20049;-69
2023/06/04 02:09:48;;;;;;;8.77;2.60;;;10.30;99.90;;;;;;5026302;28;20083;-69
2023/06/04 02:12:14;;;;;;;6.22;2.63;;;10.30;99.90;;;;;;5008118;28;20042;-69
2023/06/04 02:14:41;;;;;;;8.65;2.83;;;10.20;99.90;;;;;;5023990;28;20124;-69
2023/06/04 02:17:12;;;;;;;8.18;2.92;;;10.20;99.90;;;;;;5021851;28;20045;-69
2023/06/04 02:19:44;;;;;;;10.93;3.17;;;10.30;99.90;;;;;;5002082;28;20053;-69
2023/06/04 02:22:11;;;;;;;10.20;3.25;;;10.20;99.90;;;;;;5027673;28;20057;-69
2023/06/04 02:24:38;;;;;;;8.02;3.28;;;10.10;99.90;;;;;;5009319;28;20107;-69
2023/06/04 02:27:06;;;;;;;9.00;3.00;;;10.10;99.90;;;;;;5008630;28;20054;-69
2023/06/04 02:29:32;;;;;;;12.77;3.30;;;10.10;99.90;;;;;;5009889;28;20113;-70
2023/06/04 02:31:57;;;;;;;8.18;3.15;;;10.00;99.90;;;;;;5023197;28;20352;-70
2023/06/04 02:34:24;;;;;;;9.95;3.03;;;10.00;99.90;;;;;;5005423;28;20050;-71
2023/06/04 02:36:50;;;;;;;9.68;3.03;;;10.40;99.90;;;;;;5007086;28;20140;-70
2023/06/04 02:39:17;;;;;;;10.45;3.03;;;10.30;99.90;;;;;;5013527;28;20125;-70
2023/06/04 02:41:43;;;;;;;9.20;3.20;;;10.30;99.90;;;;;;5015283;28;20570;-70
2023/06/04 02:44:09;;;;;;;10.23;3.15;;;10.00;99.90;;;;;;5007354;28;20052;-70
2023/06/04 02:46:34;;;;;;;9.00;3.40;;;10.00;99.90;;;;;;5024169;28;20374;-70
2023/06/04 02:49:00;;;;;;;13.05;3.17;;;10.00;99.90;;;;;;5011909;28;20111;-70
2023/06/04 02:51:28;;;;;;;8.32;2.78;;;10.00;99.90;;;;;;5009464;28;20359;-70
2023/06/04 02:53:54;;;;;;;7.75;3.03;;;10.20;99.90;;;;;;4992889;28;20054;-70
2023/06/04 02:56:20;;;;;;;8.57;2.90;;;9.90;99.90;;;;;;5010640;28;20495;-70
2023/06/04 02:58:55;;;;;;;8.15;3.08;;;9.90;99.90;;;;;;5008571;28;20056;-70
2023/06/04 03:01:22;;;;;;;6.70;2.60;;;9.90;99.90;;;;;;5016466;28;20055;-70
2023/06/04 03:03:49;;;;;;;10.13;2.55;;;9.90;99.90;;;;;;5026790;28;20045;-70
2023/06/04 03:06:16;;;;;;;8.88;2.70;;;10.10;99.90;;;;;;5015578;28;20056;-70
2023/06/04 03:08:43;;;;;;;9.63;2.85;;;9.80;99.90;;;;;;5024622;28;20092;-70
2023/06/04 03:11:09;;;;;;;7.35;2.40;;;9.80;99.90;;;;;;5015466;28;20584;-70
2023/06/04 03:13:35;;;;;;;7.30;2.28;;;9.70;99.90;;;;;;5019322;28;20490;-70
2023/06/04 03:16:02;;;;;;;5.35;2.60;;;9.70;99.90;;;;;;5033735;28;20050;-71
2023/06/04 03:18:28;;;;;;;6.40;2.35;;;9.70;99.90;;;;;;5019101;28;20597;-70
2023/06/04 03:20:54;;;;;;;8.60;2.70;;;9.70;99.90;;;;;;5014314;28;20082;-70
2023/06/04 03:23:23;;;;;;;7.28;2.55;;;9.70;99.90;;;;;;5025315;28;20041;-70
2023/06/04 03:25:48;;;;;;;6.93;2.40;;;9.70;99.90;;;;;;5025650;28;20609;-70
2023/06/04 03:28:14;;;;;;;7.05;2.42;;;9.70;99.90;;;;;;5020462;28;20133;-70
2023/06/04 03:30:40;;;;;;;6.85;2.45;;;9.60;99.90;;;;;;5023622;28;20033;-70
2023/06/04 03:33:07;;;;;;;8.35;2.70;;;9.60;99.90;;;;;;5024801;28;20137;-70
2023/06/04 03:35:33;;;;;;;5.75;2.40;;;9.60;99.90;;;;;;5020127;28;20584;-70
2023/06/04 03:37:59;;;;;;;8.95;2.65;;;9.60;99.90;;;;;;5023939;28;20068;-70
2023/06/04 03:40:24;;;;;;;6.00;2.40;;;9.60;99.90;;;;;;5026254;28;20037;-70
2023/06/04 03:42:50;;;;;;;8.00;2.60;;;9.60;99.90;;;;;;5022887;28;20677;-70
2023/06/04 03:45:16;;;;;;;9.05;2.83;;;9.60;99.90;;;;;;5023561;28;20046;-70
2023/06/04 03:47:41;;;;;;;9.30;2.97;;;9.50;99.90;;;;;;5021434;28;20041;-70
2023/06/04 03:50:07;;;;;;;8.32;2.35;;;9.50;99.90;;;;;;5024364;28;20043;-70
2023/06/04 03:52:33;;;;;;;9.77;2.90;;;9.50;99.90;;;;;;5023268;28;20045;-70
2023/06/04 03:55:00;;;;;;;8.40;2.55;;;9.60;99.90;;;;;;5021753;28;20553;-70
2023/06/04 03:57:25;;;;;;;6.95;2.30;;;9.50;99.90;;;;;;4997391;28;20371;-70
2023/06/04 03:59:51;;;;;;;6.70;2.53;;;9.50;99.90;;;;;;5020828;28;20052;-70
2023/06/04 04:02:18;;;;;;;6.10;2.63;;;9.50;99.90;;;;;;5007616;28;20042;-70
2023/06/04 04:04:44;;;;;;;7.45;2.92;;;9.50;99.90;;;;;;5014728;28;20042;-70
2023/06/04 04:07:10;;;;;;;9.77;2.97;;;9.70;99.90;;;;;;5025317;28;20045;-70
2023/06/04 04:09:36;;;;;;;6.55;2.63;;;9.60;99.90;;;;;;5007829;28;20049;-70
2023/06/04 04:12:05;;;;;;;8.02;2.78;;;9.60;99.90;;;;;;5002962;28;20056;-69
2023/06/04 04:14:31;;;;;;;7.82;2.97;;;9.50;99.90;;;;;;5025638;28;20046;-70
2023/06/04 04:16:57;;;;;;;5.45;2.42;;;9.90;99.90;;;;;;5025743;28;20054;-70
2023/06/04 04:19:22;;;;;;;7.20;2.90;;;9.60;99.90;;;;;;5005526;28;20054;-69
2023/06/04 04:21:48;;;;;;;7.18;2.55;;;9.60;99.90;;;;;;5007466;28;20053;-70
2023/06/04 04:24:27;;;;;;;5.70;2.08;;;9.60;99.90;;;;;;5023334;28;20049;-69
2023/06/04 04:26:54;;;;;;;6.35;2.47;;;9.60;99.90;;;;;;5025487;28;20057;-70
2023/06/04 04:29:24;;;;;;;6.05;2.38;;;9.60;99.90;;;;;;5011888;28;20048;-69
2023/06/04 04:31:56;;;;;;;5.45;2.60;;;9.60;99.90;;;;;;5026158;28;20655;-70
2023/06/04 04:34:22;;;;;;;5.97;2.42;;;9.70;99.90;;;;;;5008238;28;20444;-70
2023/06/04 04:36:52;;;;;;;4.75;2.17;;;9.80;99.90;;;;;;5008723;28;20049;-70
2023/06/04 04:39:24;;;;;;;6.63;2.53;;;10.10;99.90;;;;;;5021929;28;20068;-70
2023/06/04 04:41:50;;;;;;;5.55;2.60;;;10.30;99.90;;;;;;5021476;28;20054;-70
2023/06/04 04:44:15;;;;;;;8.10;3.33;;;10.50;99.90;;;;;;5009084;28;20071;-70
2023/06/04 04:46:41;;;;;;;6.45;2.60;;;10.80;99.90;;;;;;5020593;28;20057;-70
2023/06/04 04:49:07;;;;;;;9.70;3.38;;;11.10;99.90;;;;;;5014887;28;20049;-70
2023/06/04 04:51:33;;;;;;;8.32;3.25;;;11.30;99.90;;;;;;5010515;28;20054;-70
2023/06/04 04:54:02;;;;;;;7.03;2.80;;;11.60;99.90;;;;;;5015764;28;20111;-71
2023/06/04 04:56:28;;;;;;;9.85;3.40;;;11.80;99.90;;;;;;5019365;28;20056;-71
2023/06/04 04:58:54;;;;;;;8.70;3.20;;;12.10;99.90;;;;;;5028644;28;20053;-71
2023/06/04 05:01:21;;;;;;;7.97;3.22;;;12.40;99.90;;;;;;5018423;28;20038;-71
2023/06/04 05:03:47;;;;;;;11.07;3.65;;;12.60;99.90;;;;;;5013826;28;20048;-71
2023/06/04 05:06:12;;;;;;;11.13;3.35;;;12.80;99.90;;;;;;5011241;28;20054;-70
2023/06/04 05:08:38;;;;;;;9.05;2.90;;;13.00;99.90;;;;;;5016502;28;20050;-70
2023/06/04 05:11:04;;;;;;;9.88;3.50;;;13.30;99.90;;;;;;5023699;28;20046;-70
2023/06/04 05:13:30;;;;;;;7.15;3.10;;;13.50;99.90;;;;;;5022072;28;20103;-71
2023/06/04 05:15:56;;;;;;;7.03;3.00;;;13.70;99.90;;;;;;5013940;28;20109;-71
2023/06/04 05:18:28;;;;;;;9.55;3.30;;;13.90;99.90;;;;;;5025567;28;20041;-71
2023/06/04 05:20:59;;;;;;;9.13;3.65;;;14.10;99.90;;;;;;5009547;28;20054;-70
2023/06/04 05:23:26;;;;;;;9.43;3.92;;;14.30;99.90;;;;;;5019665;28;20060;-70
2023/06/04 05:25:52;;;;;;;11.00;3.67;;;14.30;99.90;;;;;;5029578;28;20099;-70
2023/06/04 05:28:18;;;;;;;11.02;3.95;;;14.40;99.90;;;;;;5026744;28;20045;-70
2023/06/04 05:30:44;;;;;;;9.15;3.42;;;14.20;99.90;;;;;;5015119;28;20046;-70
2023/06/04 05:33:17;;;;;;;11.57;3.50;;;14.00;99.90;;;;;;5022244;28;20112;-70
2023/06/04 05:35:52;;;;;;;10.43;3.85;;;13.80;99.90;;;;;;5010637;28;20480;-70
2023/06/04 05:38:25;;;;;;;9.80;3.58;;;13.60;99.90;;;;;;5023502;28;20046;-70
2023/06/04 05:40:52;;;;;;;10.63;3.60;;;13.40;99.90;;;;;;5026373;28;20038;-70
2023/06/04 05:43:18;;;;;;;10.52;3.80;;;13.30;99.90;;;;;;5025049;28;20487;-70
2023/06/04 05:45:44;;;;;;;10.57;3.97;;;13.20;99.90;;;;;;5025855;28;20123;-70
2023/06/04 05:48:09;;;;;;;12.75;4.00;;;13.10;99.90;;;;;;5026624;28;20088;-70
2023/06/04 05:50:35;;;;;;;10.68;3.88;;;13.00;99.90;;;;;;5024808;28;20064;-70
2023/06/04 05:53:01;;;;;;;12.15;4.38;;;13.00;99.90;;;;;;5009048;28;20072;-70
2023/06/04 05:55:28;;;;;;;13.07;4.35;;;13.00;99.90;;;;;;5027445;28;20041;-70
2023/06/04 05:57:54;;;;;;;11.43;4.10;;;12.90;99.90;;;;;;5017825;28;20046;-70
2023/06/04 06:00:20;;;;;;;13.32;4.78;;;12.90;99.90;;;;;;5015519;28;20717;-70
2023/06/04 06:02:48;;;;;;;11.90;4.57;;;12.90;99.90;;;;;;5010157;28;20527;-70
2023/06/04 06:05:15;;;;;;;12.35;4.57;;;13.00;99.90;;;;;;5027318;28;20052;-70
2023/06/04 06:07:41;;;;;;;18.67;4.70;;;13.00;99.90;;;;;;5028037;28;20080;-71
2023/06/04 06:10:07;;;;;;;11.77;4.45;;;13.00;99.90;;;;;;5020277;28;20591;-70
2023/06/04 06:12:33;;;;;;;12.43;4.40;;;13.00;99.90;;;;;;5025498;28;20080;-71
2023/06/04 06:14:59;;;;;;;11.23;4.22;;;13.00;99.90;;;;;;5022533;28;20092;-71
2023/06/04 06:17:25;;;;;;;12.52;3.92;;;13.10;99.90;;;;;;5029643;28;20041;-71
2023/06/04 06:19:52;;;;;;;18.63;4.13;;;13.20;99.90;;;;;;5028725;28;20046;-68
2023/06/04 06:22:18;;;;;;;12.40;4.18;;;13.40;99.90;;;;;;5015601;28;20494;-68
2023/06/04 06:24:44;;;;;;;17.95;4.30;;;13.40;99.90;;;;;;5024890;28;20067;-68
2023/06/04 06:27:10;;;;;;;12.52;3.95;;;13.40;99.90;;;;;;5021674;28;20046;-68
2023/06/04 06:29:36;;;;;;;11.48;3.70;;;13.40;99.90;;;;;;5021921;28;20517;-68
2023/06/04 06:32:02;;;;;;;12.25;3.63;;;13.40;99.90;;;;;;5017909;28;20037;-68
2023/06/04 06:34:28;;;;;;;11.40;3.53;;;13.50;99.90;;;;;;5027777;28;20046;-68
2023/06/04 06:36:54;;;;;;;10.80;3.90;;;13.50;99.90;;;;;;5023267;28;20425;-68
2023/06/04 06:39:20;;;;;;;13.82;3.78;;;13.50;99.90;;;;;;5024226;28;20038;-68
2023/06/04 06:41:46;;;;;;;13.00;3.22;;;13.50;99.90;;;;;;5007905;28;20106;-67
2023/06/04 06:44:11;;;;;;;10.95;2.97;;;13.60;99.90;;;;;;5019468;28;20041;-68
2023/06/04 06:46:37;;;;;;;10.55;2.85;;;13.60;99.90;;;;;;5023249;28;20140;-68
2023/06/04 06:49:03;;;;;;;12.40;3.22;;;13.60;99.90;;;;;;5022826;28;20041;-68
2023/06/04 06:51:28;;;;;;;14.43;3.63;;;13.60;99.90;;;;;;5007962;28;20038;-68
2023/06/04 06:53:54;;;;;;;11.18;3.10;;;13.60;99.90;;;;;;5023400;28;20131;-68
2023/06/04 06:56:20;;;;;;;9.35;2.70;;;13.80;99.90;;;;;;5016415;28;20516;-68
2023/06/04 06:58:46;;;;;;;12.77;3.00;;;13.60;99.90;;;;;;5019636;28;20041;-68
2023/06/04 07:01:12;;;;;;;11.15;3.08;;;13.70;99.90;;;;;;5014388;28;20122;-68
2023/06/04 07:03:39;;;;;;;10.63;2.53;;;13.70;99.90;;;;;;5003028;28;20042;-69
2023/06/04 07:06:05;;;;;;;11.20;2.83;;;13.80;99.90;;;;;;5007060;28;20084;-69
2023/06/04 07:08:32;;;;;;;14.52;3.63;;;13.80;99.90;;;;;;5013418;28;20045;-69
2023/06/04 07:10:58;;;;;;;11.07;3.00;;;13.90;99.90;;;;;;5012372;28;20111;-69
2023/06/04 07:13:24;;;;;;;13.38;3.17;;;13.90;99.90;;;;;;5008096;28;20453;-68
2023/06/04 07:15:50;;;;;;;13.60;3.35;;;14.00;99.90;;;;;;5006285;28;20350;-69
2023/06/04 07:18:15;;;;;;;14.25;3.03;;;14.10;99.90;;;;;;5008868;28;20046;-69
2023/06/04 07:20:41;;;;;;;10.63;2.92;;;14.20;99.90;;;;;;4987111;28;20050;-71
2023/06/04 07:23:07;;;;;;;7.47;2.50;;;14.30;99.90;;;;;;5011342;28;20045;-69
2023/06/04 07:25:33;;;;;;;11.23;3.00;;;14.30;99.90;;;;;;5011816;28;20047;-69
2023/06/04 07:27:59;;;;;;;9.70;2.65;;;14.50;99.90;;;;;;5005169;28;20426;-68
2023/06/04 07:30:25;;;;;;;12.27;2.95;;;14.50;99.90;;;;;;5002743;28;20045;-68
2023/06/04 07:32:51;;;;;;;13.02;2.95;;;14.70;99.90;;;;;;5002662;28;20049;-68
2023/06/04 07:35:17;;;;;;;14.00;3.25;;;14.80;99.90;;;;;;5011210;28;20052;-68
2023/06/04 07:37:45;;;;;;;8.75;2.75;;;14.90;99.90;;;;;;5011317;28;20041;-68
2023/06/04 07:40:11;;;;;;;9.13;2.55;;;14.90;99.90;;;;;;5014166;28;20140;-69
2023/06/04 07:42:37;;;;;;;8.82;2.60;;;15.00;99.90;;;;;;5004894;28;20115;-68
2023/06/04 07:45:03;;;;;;;11.50;2.72;;;15.20;99.90;;;;;;5009353;28;20045;-69
2023/06/04 07:47:29;;;;;;;12.75;2.80;;;15.20;99.90;;;;;;5004939;28;20168;-70
2023/06/04 07:49:55;;;;;;;9.77;2.70;;;15.40;99.90;;;;;;5011032;28;20044;-69
2023/06/04 07:52:21;;;;;;;9.60;2.70;;;15.40;99.90;;;;;;5004054;28;20045;-71
2023/06/04 07:54:46;;;;;;;8.40;2.40;;;15.50;99.90;;;;;;5006171;28;20048;-71
2023/06/04 07:57:12;;;;;;;9.52;2.47;;;15.60;99.90;;;;;;5005936;28;20045;-71
2023/06/04 07:59:38;;;;;;;12.77;2.70;;;15.60;99.90;;;;;;5004014;28;20052;-70
2023/06/04 08:02:04;;;;;;;14.20;2.47;;;15.70;99.90;;;;;;5006293;28;20038;-70
2023/06/04 08:04:31;;;;;;;7.72;2.45;;;15.70;99.90;;;;;;5003058;28;20076;-70
2023/06/04 08:06:57;;;;;;;12.43;2.85;;;15.80;99.90;;;;;;4992561;28;20049;-70
2023/06/04 08:09:22;;;;;;;9.13;2.35;;;15.90;99.90;;;;;;5005007;28;20061;-70
2023/06/04 08:11:49;;;;;;;9.23;2.60;;;15.90;99.90;;;;;;4992106;28;20085;-70
2023/06/04 08:14:15;;;;;;;7.53;2.15;;;16.00;99.90;;;;;;5006971;28;20510;-70
2023/06/04 08:16:41;;;;;;;8.73;2.20;;;16.00;99.90;;;;;;5012118;28;20060;-71
2023/06/04 08:19:07;;;;;;;8.57;2.40;;;16.10;99.90;;;;;;5016038;28;20080;-70
2023/06/04 08:21:33;;;;;;;7.15;2.17;;;16.10;99.90;;;;;;5005106;28;20148;-71
2023/06/04 08:24:00;;;;;;;7.82;2.22;;;16.20;99.90;;;;;;5011206;28;20056;-71
2023/06/04 08:26:29;;;;;;;6.20;1.92;;;16.30;99.90;;;;;;5013433;28;20323;-72
2023/06/04 08:28:55;;;;;;;8.85;2.13;;;16.30;99.90;;;;;;4987848;28;20131;-71
2023/06/04 08:31:21;;;;;;;10.38;2.90;;;16.40;99.90;;;;;;4993665;28;20065;-71
2023/06/04 08:33:47;;;;;;;8.98;2.55;;;16.50;99.90;;;;;;5010948;28;20080;-71
2023/06/04 08:36:13;;;;;;;8.20;2.25;;;16.60;99.90;;;;;;5002151;28;20038;-70
2023/06/04 08:38:39;;;;;;;6.30;1.98;;;16.60;99.90;;;;;;5005390;28;20042;-71
2023/06/04 08:41:27;;;;;;;9.20;2.22;;;16.60;99.90;;;;;;5003699;28;20053;-70
2023/06/04 08:43:57;;;;;;;6.00;2.00;;;16.70;99.90;;;;;;5005701;28;20041;-72
2023/06/04 08:46:23;;;;;;;7.57;1.95;;;16.70;99.90;;;;;;5005483;28;20041;-71
2023/06/04 08:48:50;;;;;;;9.63;2.70;;;16.80;99.90;;;;;;5004286;28;20053;-71
2023/06/04 08:51:17;;;;;;;10.68;2.63;;;16.80;99.90;;;;;;5014570;28;20088;-71
2023/06/04 08:53:43;;;;;;;6.50;1.85;;;16.90;99.90;;;;;;5004732;28;20664;-71
2023/06/04 08:56:09;;;;;;;7.82;2.28;;;16.80;99.90;;;;;;5011193;28;20514;-70
2023/06/04 08:58:36;;;;;;;8.88;2.05;;;16.90;99.90;;;;;;5024946;28;20041;-70
2023/06/04 09:01:03;;;;;;;6.63;2.42;;;16.90;99.90;;;;;;5008856;28;20104;-70
2023/06/04 09:03:32;;;;;;;9.45;2.15;;;16.90;99.90;;;;;;4993553;28;20042;-70
2023/06/04 09:05:59;;;;;;;5.97;2.00;;;16.90;99.90;;;;;;5005707;28;20057;-70
2023/06/04 09:08:27;;;;;;;8.25;2.05;;;17.00;99.90;;;;;;4990610;28;20048;-71
2023/06/04 09:10:56;;;;;;;8.30;2.20;;;17.10;99.90;;;;;;4997479;28;20382;-71
2023/06/04 09:13:24;;;;;;;8.52;2.33;;;17.10;99.90;;;;;;5020604;28;20041;-71
2023/06/04 09:16:00;;;;;;;6.97;1.75;;;17.20;99.90;;;;;;5036363;28;20052;-70
2023/06/04 09:18:26;;;;;;;7.38;2.03;;;17.20;99.90;;;;;;5012840;28;20046;-71
2023/06/04 09:21:07;;;;;;;5.55;1.85;;;17.30;99.90;;;;;;4990747;28;20056;-71
2023/06/04 09:23:51;;;;;;;7.00;1.85;;;17.30;99.90;;;;;;5003806;28;20129;-71
2023/06/04 09:26:16;;;;;;;4.20;1.25;;;17.30;99.90;;;;;;5011173;28;20037;-70
2023/06/04 09:28:44;;;;;;;6.90;1.88;;;17.30;99.90;;;;;;5012571;28;20049;-72
2023/06/04 09:31:15;;;;;;;6.20;1.50;;;17.30;99.90;;;;;;5023412;28;20043;-68
2023/06/04 09:33:50;;;;;;;7.40;1.85;;;17.20;99.90;;;;;;5021250;28;20124;-69
2023/06/04 09:36:16;;;;;;;4.40;1.73;;;17.20;99.90;;;;;;5020893;28;20426;-69
2023/06/04 09:38:43;;;;;;;5.57;1.40;;;17.30;99.90;;;;;;5023160;28;20686;-70
2023/06/04 09:41:12;;;;;;;6.65;1.58;;;17.30;99.90;;;;;;5020382;28;20129;-70
2023/06/04 09:43:39;;;;;;;8.52;2.08;;;17.30;99.90;;;;;;5022162;28;20102;-70
2023/06/04 09:46:22;;;;;;;7.53;1.55;;;17.30;99.90;;;;;;5018649;28;20772;-70
2023/06/04 09:48:48;;;;;;;6.57;1.60;;;17.40;99.90;;;;;;5011327;28;20415;-70
2023/06/04 09:51:18;;;;;;;4.63;1.35;;;17.40;99.90;;;;;;5026875;28;20108;-70
2023/06/04 09:53:54;;;;;;;5.43;1.52;;;17.40;99.90;;;;;;5013284;28;20490;-70
2023/06/04 09:56:21;;;;;;;8.95;1.98;;;17.50;99.90;;;;;;5017189;28;20056;-70
2023/06/04 09:58:48;;;;;;;4.63;1.55;;;17.50;99.90;;;;;;5006895;28;20095;-70
2023/06/04 10:01:15;;;;;;;9.57;1.95;;;17.50;99.90;;;;;;5021504;28;20512;-70
2023/06/04 10:03:46;;;;;;;5.40;2.00;;;17.60;99.90;;;;;;5020324;28;20045;-70
2023/06/04 10:06:14;;;;;;;6.57;1.98;;;17.60;99.90;;;;;;4998333;28;20056;-70
2023/06/04 10:08:42;;;;;;;5.40;1.67;;;17.60;99.90;;;;;;5014821;28;20060;-70
2023/06/04 10:11:11;;;;;;;7.65;2.08;;;17.60;99.90;;;;;;5016969;28;20037;-70
2023/06/04 10:13:52;;;;;;;5.65;1.70;;;17.60;99.90;;;;;;5013570;28;20723;-70
2023/06/04 10:16:20;;;;;;;5.60;1.67;;;17.60;99.90;;;;;;5010710;28;20417;-70
2023/06/04 10:18:46;;;;;;;5.68;1.40;;;17.70;99.90;;;;;;5017703;28;20053;-71
2023/06/04 10:21:14;;;;;;;8.23;1.92;;;17.70;99.90;;;;;;5013750;28;20077;-71
2023/06/04 10:23:44;;;;;;;7.38;1.60;;;17.70;99.90;;;;;;5013690;28;20048;-71
2023/06/04 10:26:14;;;;;;;6.05;1.70;;;17.70;99.90;;;;;;5009482;28;20055;-70
2023/06/04 10:28:41;;;;;;;5.47;2.05;;;17.70;99.90;;;;;;5015158;28;20054;-70
2023/06/04 10:31:07;;;;;;;4.10;1.50;;;17.70;99.90;;;;;;5016175;28;20087;-70
2023/06/04 10:33:33;;;;;;;5.35;1.58;;;17.60;99.90;;;;;;5007737;28;20045;-70
2023/06/04 10:36:15;;;;;;;5.95;1.50;;;17.70;99.90;;;;;;4990604;28;20406;-70
2023/06/04 10:38:49;;;;;;;4.47;1.63;;;17.60;99.90;;;;;;5015896;28;20077;-70
2023/06/04 10:41:16;;;;;;;4.07;1.45;;;17.70;99.90;;;;;;5015982;28;20694;-70
2023/06/04 10:43:49;;;;;;;4.78;1.45;;;17.80;99.90;;;;;;5014787;28;20053;-70
2023/06/04 10:46:16;;;;;;;4.78;1.40;;;17.80;99.90;;;;;;5014855;28;21588;-69
2023/06/04 10:48:52;;;;;;;4.97;1.45;;;17.80;99.90;;;;;;5016487;28;20465;-69
2023/06/04 10:51:32;;;;;;;6.32;1.48;;;17.80;99.90;;;;;;5013104;28;20049;-70
2023/06/04 10:54:02;;;;;;;5.13;1.65;;;17.90;99.90;;;;;;5014122;28;20041;-70
2023/06/04 10:56:32;;;;;;;4.95;1.50;;;17.90;99.90;;;;;;5008715;28;20053;-70
2023/06/04 10:58:58;;;;;;;4.93;1.40;;;17.90;99.90;;;;;;5007451;28;20051;-70
2023/06/04 11:01:29;;;;;;;4.25;1.63;;;17.90;99.90;;;;;;4995021;28;20064;-70
2023/06/04 11:03:55;;;;;;;5.93;2.00;;;18.00;99.90;;;;;;5004451;28;20048;-70
2023/06/04 11:06:22;;;;;;;6.07;1.55;;;18.10;99.90;;;;;;5010364;28;20049;-70
2023/06/04 11:08:48;;;;;;;7.28;1.73;;;18.10;99.90;;;;;;5013423;28;20049;-70
2023/06/04 11:11:15;;;;;;;4.55;1.33;;;18.10;99.90;;;;;;4992709;28;20087;-70
2023/06/04 11:13:42;;;;;;;5.05;1.45;;;18.10;99.90;;;;;;5012880;28;20058;-70
2023/06/04 11:16:26;;;;;;;5.07;1.30;;;18.10;99.90;;;;;;5012899;28;20100;-70
2023/06/04 11:18:56;;;;;;;3.95;1.50;;;18.00;99.90;;;;;;5006643;28;20045;-69
2023/06/04 11:21:22;;;;;;;5.90;1.60;;;18.00;99.90;;;;;;4998835;28;20348;-69
2023/06/04 11:23:47;;;;;;;5.47;1.50;;;18.00;99.90;;;;;;5003127;28;20199;-71
2023/06/04 11:26:13;;;;;;;6.38;1.90;;;18.00;99.90;;;;;;5012955;28;20038;-70
2023/06/04 11:28:44;;;;;;;5.22;1.45;;;17.90;99.90;;;;;;4994974;28;20045;-70
2023/06/04 11:31:10;;;;;;;6.43;1.70;;;18.00;99.90;;;;;;5008321;28;20084;-68
2023/06/04 11:33:46;;;;;;;6.22;1.70;;;18.00;99.90;;;;;;5010662;28;20037;-68
2023/06/04 11:36:25;;;;;;;6.03;1.70;;;18.00;99.90;;;;;;5009858;28;20037;-69
2023/06/04 11:39:09;;;;;;;4.53;1.90;;;18.00;99.90;;;;;;5010197;28;20046;-70
2023/06/04 11:41:36;;;;;;;6.95;1.90;;;18.10;99.90;;;;;;5007341;28;20501;-70
2023/06/04 11:44:04;;;;;;;4.72;1.60;;;18.10;99.90;;;;;;5009043;28;20330;-70
2023/06/04 11:46:32;;;;;;;7.70;2.10;;;18.20;99.90;;;;;;5014010;28;20037;-70
2023/06/04 11:48:58;;;;;;;5.78;1.42;;;18.20;99.90;;;;;;5017791;28;20044;-70
2023/06/04 11:51:24;;;;;;;7.32;1.67;;;18.30;99.90;;;;;;5021598;28;20409;-70
2023/06/04 11:53:50;;;;;;;5.88;1.40;;;18.30;99.90;;;;;;5015362;28;20045;-70
2023/06/04 11:56:17;;;;;;;5.05;1.50;;;18.30;99.90;;;;;;5009945;28;20037;-70
2023/06/04 11:58:45;;;;;;;5.00;1.60;;;18.30;99.90;;;;;;5017285;28;20133;-70
2023/06/04 12:01:13;;;;;;;5.50;1.67;;;18.40;99.90;;;;;;5018945;28;20106;-70
2023/06/04 12:03:42;;;;;;;5.38;1.70;;;18.50;99.90;;;;;;5014327;28;20053;-71
2023/06/04 12:06:15;;;;;;;6.43;1.75;;;18.50;99.90;;;;;;5024312;28;20049;-71
2023/06/04 12:09:07;;;;;;;9.18;1.73;;;18.50;99.90;;;;;;5010120;28;20072;-70
2023/06/04 12:11:34;;;;;;;6.22;2.13;;;18.50;99.90;;;;;;4992772;28;20507;-70
2023/06/04 12:14:04;;;;;;;5.90;1.73;;;18.50;99.90;;;;;;4995880;28;20076;-70
2023/06/04 12:16:29;;;;;;;4.13;1.60;;;18.50;99.90;;;;;;5012110;28;20041;-76
2023/06/04 12:19:09;;;;;;;5.50;1.85;;;18.50;99.90;;;;;;4998999;28;20701;-76
2023/06/04 12:21:36;;;;;;;7.30;1.90;;;18.50;99.90;;;;;;5010247;28;20049;-77
2023/06/04 12:24:15;;;;;;;5.20;1.67;;;18.50;99.90;;;;;;5005517;28;22209;-75
2023/06/04 12:26:43;;;;;;;7.95;2.15;;;18.50;99.90;;;;;;5016247;28;20129;-77
2023/06/04 12:29:19;;;;;;;5.22;1.70;;;18.40;99.90;;;;;;5010552;28;20042;-74
2023/06/04 12:31:46;;;;;;;7.10;1.67;;;18.20;99.90;;;;;;5018716;28;21381;-75
2023/06/04 12:34:15;;;;;;;7.20;1.75;;;18.20;99.90;;;;;;5006192;28;20103;-74
2023/06/04 12:36:42;;;;;;;5.10;1.60;;;18.30;99.90;;;;;;5012608;28;20091;-74
2023/06/04 12:39:08;;;;;;;6.97;1.77;;;18.30;99.90;;;;;;5008875;28;20051;-74
2023/06/04 12:41:34;;;;;;;5.78;1.67;;;18.40;99.90;;;;;;5005737;28;20522;-75
2023/06/04 12:44:01;;;;;;;4.75;1.92;;;18.40;99.90;;;;;;5005199;28;20049;-74
2023/06/04 12:46:27;;;;;;;5.50;1.63;;;18.50;99.90;;;;;;5003078;28;20585;-74
2023/06/04 12:48:54;;;;;;;5.30;1.52;;;18.40;99.90;;;;;;5004806;28;20124;-75